Time;durP1;ratioP1;P1;durP2;ratioP2;P2;SDS_P1;SDS_P2;PMS_P1;PMS_P2;Temp;Humidity;BMP_temperature;BMP_pressure;BME280_temperature;BME280_humidity;BME280_pressure;Samples;Min_cycle;Max_cycle;Signal;HPM_P1;HPM_P2
2022/01/12 00:00:38;;;;;;;;;;;1.70;99.90;;;;;;5067355;28;19931;-74
2022/01/12 00:03:06;;;;;;;;;;;1.70;99.90;;;;;;5071817;28;19924;-73
2022/01/12 00:05:33;;;;;;;;;;;1.70;99.90;;;;;;5059771;28;19968;-73
2022/01/12 00:07:59;;;;;;;;;;;1.80;99.90;;;;;;5064570;28;20015;-73
2022/01/12 00:10:26;;;;;;;;;;;1.70;99.90;;;;;;5075913;28;20074;-74
2022/01/12 00:12:53;;;;;;;;;;;1.80;99.90;;;;;;5063390;28;19925;-74
2022/01/12 00:15:19;;;;;;;;;;;1.80;99.90;;;;;;5074395;28;20284;-74
2022/01/12 00:17:46;;;;;;;;;;;1.90;99.90;;;;;;5072816;28;20369;-74
2022/01/12 00:20:15;;;;;;;;;;;1.90;99.90;;;;;;5063446;28;19929;-73
2022/01/12 00:22:42;;;;;;;;;;;1.90;99.90;;;;;;5065739;28;19932;-73
2022/01/12 00:25:26;;;;;;;;;;;1.90;99.90;;;;;;5068652;28;20349;-73
2022/01/12 00:33:21;;;;;;;;;;;1.80;99.90;;;;;;5060608;28;19970;-73
2022/01/12 00:35:50;;;;;;;;;;;1.80;99.90;;;;;;5057389;28;19939;-73
2022/01/12 00:38:18;;;;;;;;;;;1.70;99.90;;;;;;5068164;28;19935;-75
2022/01/12 00:40:48;;;;;;;;;;;1.70;99.90;;;;;;5055462;28;19925;-74
2022/01/12 00:43:15;;;;;;;;;;;1.70;99.90;;;;;;5055574;28;19931;-73
2022/01/12 00:45:42;;;;;;;;;;;1.70;99.90;;;;;;5064035;28;19924;-73
2022/01/12 00:48:09;;;;;;;;;;;1.70;99.90;;;;;;5060152;28;20023;-73
2022/01/12 00:50:36;;;;;;;;;;;1.70;99.90;;;;;;5063723;28;19925;-73
2022/01/12 00:53:05;;;;;;;;;;;1.70;99.90;;;;;;5064278;28;19924;-73
2022/01/12 00:55:32;;;;;;;;;;;1.70;99.90;;;;;;5067348;28;19971;-73
2022/01/12 00:57:59;;;;;;;;;;;1.70;99.90;;;;;;5073815;28;19935;-73
2022/01/12 01:00:26;;;;;;;;;;;1.70;99.90;;;;;;5068430;28;19925;-73
2022/01/12 01:02:53;;;;;;;;;;;1.70;99.90;;;;;;5070319;28;19925;-73
2022/01/12 01:05:22;;;;;;;;;;;1.70;99.90;;;;;;5067745;28;20363;-73
2022/01/12 01:07:49;;;;;;;;;;;1.70;99.90;;;;;;5063369;28;19947;-73
2022/01/12 01:10:26;;;;;;;;;;;1.80;99.90;;;;;;5062053;28;19925;-73
2022/01/12 01:12:52;;;;;;;;;;;1.70;99.90;;;;;;5081184;28;19931;-73
2022/01/12 01:15:27;;;;;;;;;;;1.70;99.90;;;;;;5064992;28;19924;-73
2022/01/12 01:26:08;;;;;;;;;;;1.60;99.90;;;;;;5063192;28;19977;-74
2022/01/12 01:28:35;;;;;;;;;;;1.60;99.90;;;;;;5063728;28;19931;-73
2022/01/12 01:31:02;;;;;;;;;;;1.60;99.90;;;;;;5064186;28;19924;-74
2022/01/12 01:33:28;;;;;;;;;;;1.50;99.90;;;;;;5067111;28;19931;-74
2022/01/12 01:35:57;;;;;;;;;;;1.60;99.90;;;;;;5067990;28;20779;-74
2022/01/12 01:38:23;;;;;;;;;;;1.60;99.90;;;;;;5063383;28;19925;-74
2022/01/12 01:40:50;;;;;;;;;;;1.60;99.90;;;;;;5069007;28;19931;-74
2022/01/12 01:43:25;;;;;;;;;;;1.60;99.90;;;;;;5071223;28;19928;-73
2022/01/12 01:54:05;;;;;;;;;;;1.50;99.90;;;;;;5080403;28;19932;-73
2022/01/12 01:56:32;;;;;;;;;;;1.50;99.90;;;;;;5073584;28;19924;-76
2022/01/12 01:59:00;;;;;;;;;;;1.50;99.90;;;;;;5067197;28;19925;-76
2022/01/12 02:01:26;;;;;;;;;;;1.50;99.90;;;;;;5069146;28;19925;-73
2022/01/12 02:03:55;;;;;;;;;;;1.50;99.90;;;;;;5066507;28;20318;-74
2022/01/12 02:06:22;;;;;;;;;;;1.50;99.90;;;;;;5072042;28;19924;-72
2022/01/12 02:08:49;;;;;;;;;;;1.50;99.90;;;;;;5077779;28;19931;-74
2022/01/12 02:11:16;;;;;;;;;;;1.50;99.90;;;;;;5069840;28;19925;-74
2022/01/12 02:13:42;;;;;;;;;;;1.50;99.90;;;;;;5058315;28;19928;-74
2022/01/12 02:16:10;;;;;;;;;;;1.50;99.90;;;;;;5064374;28;20007;-74
2022/01/12 02:19:03;;;;;;;;;;;1.50;99.90;;;;;;5058172;28;19952;-74
2022/01/12 02:35:21;;;;;;;;;;;1.60;99.90;;;;;;5074664;28;19978;-73
2022/01/12 02:40:38;;;;;;;;;;;1.60;99.90;;;;;;5057419;28;19931;-73
2022/01/12 02:43:11;;;;;;;;;;;1.60;99.90;;;;;;5072131;28;20380;-74
2022/01/12 02:51:15;;;;;;;;;;;1.70;99.90;;;;;;5071614;28;19939;-74
2022/01/12 02:53:43;;;;;;;;;;;1.60;99.90;;;;;;5071100;28;19925;-74
2022/01/12 02:56:10;;;;;;;;;;;1.70;99.90;;;;;;5074048;28;20337;-73
2022/01/12 02:58:38;;;;;;;;;;;1.70;99.90;;;;;;5073030;28;19924;-74
2022/01/12 03:01:28;;;;;;;;;;;1.70;99.90;;;;;;5070846;28;19925;-74
2022/01/12 03:03:56;;;;;;;;;;;1.70;99.90;;;;;;5073745;28;19931;-75
2022/01/12 03:06:27;;;;;;;;;;;1.70;99.90;;;;;;5070752;28;20379;-74
2022/01/12 03:08:55;;;;;;;;;;;1.70;99.90;;;;;;5066120;28;19932;-74
2022/01/12 03:11:22;;;;;;;;;;;1.80;99.90;;;;;;5075858;28;20015;-74
2022/01/12 03:13:49;;;;;;;;;;;1.80;99.90;;;;;;5069678;28;19929;-74
2022/01/12 03:16:17;;;;;;;;;;;1.80;99.90;;;;;;5058650;28;19931;-74
2022/01/12 03:18:45;;;;;;;;;;;1.80;99.90;;;;;;5064465;28;20020;-74
2022/01/12 03:21:12;;;;;;;;;;;1.80;99.90;;;;;;5070722;28;20019;-74
2022/01/12 03:23:39;;;;;;;;;;;1.70;99.90;;;;;;5067398;28;19966;-74
2022/01/12 03:26:08;;;;;;;;;;;1.70;99.90;;;;;;5069595;28;20516;-73
2022/01/12 03:28:37;;;;;;;;;;;1.70;99.90;;;;;;5088172;28;19978;-74
2022/01/12 03:31:08;;;;;;;;;;;1.70;99.90;;;;;;5062033;28;20471;-73
2022/01/12 03:33:50;;;;;;;;;;;1.70;99.90;;;;;;5065093;28;19924;-74
2022/01/12 03:36:26;;;;;;;;;;;1.60;99.90;;;;;;5079547;28;19925;-74
2022/01/12 03:38:54;;;;;;;;;;;1.60;99.90;;;;;;5060473;28;20387;-74
2022/01/12 03:41:22;;;;;;;;;;;1.60;99.90;;;;;;5068578;28;19924;-73
2022/01/12 03:43:49;;;;;;;;;;;1.60;99.90;;;;;;5073214;28;19924;-74
2022/01/12 03:46:17;;;;;;;;;;;1.60;99.90;;;;;;5068747;28;19931;-74
2022/01/12 03:48:44;;;;;;;;;;;1.60;99.90;;;;;;5065756;28;19925;-74
2022/01/12 03:51:11;;;;;;;;;;;1.60;99.90;;;;;;5068737;28;19939;-74
2022/01/12 03:53:37;;;;;;;;;;;1.70;99.90;;;;;;5060920;28;20406;-73
2022/01/12 03:56:04;;;;;;;;;;;1.70;99.90;;;;;;5072067;28;19924;-75
2022/01/12 03:58:32;;;;;;;;;;;1.70;99.90;;;;;;5071354;28;19925;-73
2022/01/12 04:00:59;;;;;;;;;;;1.70;99.90;;;;;;5079479;28;19931;-73
2022/01/12 04:03:27;;;;;;;;;;;1.70;99.90;;;;;;5071240;28;19931;-74
2022/01/12 04:08:38;;;;;;;;;;;1.70;99.90;;;;;;5086361;28;19957;-74
2022/01/12 04:11:05;;;;;;;;;;;1.80;99.90;;;;;;5055668;28;20451;-73
2022/01/12 04:13:33;;;;;;;;;;;1.80;99.90;;;;;;5066542;28;20299;-73
2022/01/12 04:16:01;;;;;;;;;;;1.80;99.90;;;;;;5063106;28;20055;-74
2022/01/12 04:18:28;;;;;;;;;;;1.80;99.90;;;;;;5077530;28;19928;-73
2022/01/12 04:20:56;;;;;;;;;;;1.80;99.90;;;;;;5067573;28;20395;-73
2022/01/12 04:23:23;;;;;;;;;;;1.70;99.90;;;;;;5076060;28;19932;-73
2022/01/12 04:25:51;;;;;;;;;;;1.80;99.90;;;;;;5061730;28;20277;-73
2022/01/12 04:28:18;;;;;;;;;;;1.80;99.90;;;;;;5072836;28;20671;-73
2022/01/12 04:30:46;;;;;;;;;;;1.80;99.90;;;;;;5070677;28;20011;-71
2022/01/12 04:33:13;;;;;;;;;;;1.90;99.90;;;;;;5064543;28;20298;-72
2022/01/12 04:35:46;;;;;;;;;;;1.90;99.90;;;;;;5066599;28;19924;-72
2022/01/12 04:38:13;;;;;;;;;;;1.90;99.90;;;;;;5067738;28;20405;-73
2022/01/12 04:40:40;;;;;;;;;;;1.90;99.90;;;;;;5063223;28;19963;-72
2022/01/12 04:43:08;;;;;;;;;;;1.90;99.90;;;;;;5076038;28;19924;-73
2022/01/12 04:45:41;;;;;;;;;;;1.90;99.90;;;;;;5074282;28;19924;-73
2022/01/12 04:48:31;;;;;;;;;;;1.90;99.90;;;;;;5065396;28;19924;-73
2022/01/12 04:50:58;;;;;;;;;;;1.90;99.90;;;;;;5078207;28;20388;-73
2022/01/12 04:53:25;;;;;;;;;;;1.90;99.90;;;;;;5062007;28;20023;-73
2022/01/12 04:55:52;;;;;;;;;;;1.90;99.90;;;;;;5071441;28;19924;-73
2022/01/12 04:58:19;;;;;;;;;;;2.00;99.90;;;;;;5070325;28;19933;-73
2022/01/12 05:00:46;;;;;;;;;;;2.00;99.90;;;;;;5067705;28;19932;-74
2022/01/12 05:08:53;;;;;;;;;;;2.00;99.90;;;;;;5069618;28;20398;-73
2022/01/12 05:14:03;;;;;;;;;;;2.00;99.90;;;;;;5071552;28;19931;-72
2022/01/12 05:16:30;;;;;;;;;;;1.90;99.90;;;;;;5073159;28;20757;-72
2022/01/12 05:18:59;;;;;;;;;;;1.90;99.90;;;;;;5080738;28;19924;-72
2022/01/12 05:21:26;;;;;;;;;;;1.90;99.90;;;;;;5085931;28;19931;-72
2022/01/12 05:23:53;;;;;;;;;;;2.00;99.90;;;;;;5075233;28;19924;-72
2022/01/12 05:26:19;;;;;;;;;;;2.00;99.90;;;;;;5068532;28;20306;-71
2022/01/12 05:28:46;;;;;;;;;;;2.00;99.90;;;;;;5062144;28;19924;-72
2022/01/12 05:31:13;;;;;;;;;;;2.00;99.90;;;;;;5075093;28;20302;-72
2022/01/12 05:33:47;;;;;;;;;;;2.00;99.90;;;;;;5077005;28;21686;-71
2022/01/12 05:36:19;;;;;;;;;;;1.90;99.90;;;;;;5069992;28;20025;-73
2022/01/12 05:38:46;;;;;;;;;;;1.90;99.90;;;;;;5075910;28;19947;-71
2022/01/12 05:41:13;;;;;;;;;;;2.00;99.90;;;;;;5054011;28;20350;-72
2022/01/12 05:43:41;;;;;;;;;;;2.00;99.90;;;;;;5070927;28;19924;-72
2022/01/12 05:46:10;;;;;;;;;;;2.00;99.90;;;;;;5070103;28;19931;-73
2022/01/12 05:51:24;;;;;;;;;;;2.00;99.90;;;;;;5080043;28;19931;-73
2022/01/12 05:53:51;;;;;;;;;;;2.10;99.90;;;;;;5057826;28;20268;-73
2022/01/12 05:56:18;;;;;;;;;;;2.10;99.90;;;;;;5071925;28;20031;-73
2022/01/12 05:58:45;;;;;;;;;;;2.10;99.90;;;;;;5070509;28;19932;-72
2022/01/12 06:01:11;;;;;;;;;;;2.10;99.90;;;;;;5077020;28;19971;-72
2022/01/12 06:03:38;;;;;;;;;;;2.10;99.90;;;;;;5070418;28;19928;-72
2022/01/12 06:06:05;;;;;;;;;;;2.10;99.90;;;;;;5057917;28;20389;-71
2022/01/12 06:08:33;;;;;;;;;;;2.20;99.90;;;;;;5071959;28;20031;-71
2022/01/12 06:11:00;;;;;;;;;;;2.20;99.90;;;;;;5068942;28;19967;-71
2022/01/12 06:13:26;;;;;;;;;;;2.20;99.90;;;;;;5072020;28;19924;-73
2022/01/12 06:15:53;;;;;;;;;;;2.30;99.90;;;;;;5083362;28;19987;-74
2022/01/12 06:18:20;;;;;;;;;;;2.20;99.90;;;;;;5072240;28;20016;-71
2022/01/12 06:20:46;;;;;;;;;;;2.20;99.90;;;;;;5068368;28;19939;-71
2022/01/12 06:23:13;;;;;;;;;;;2.20;99.90;;;;;;5081806;28;20383;-71
2022/01/12 06:25:41;;;;;;;;;;;2.20;99.90;;;;;;5065272;28;20031;-71
2022/01/12 06:28:23;;;;;;;;;;;2.30;99.90;;;;;;5069499;28;20027;-71
2022/01/12 06:33:34;;;;;;;;;;;2.40;99.90;;;;;;5052268;28;19932;-71
2022/01/12 06:36:01;;;;;;;;;;;2.40;99.90;;;;;;5068091;28;19975;-71
2022/01/12 06:38:28;;;;;;;;;;;2.40;99.90;;;;;;5067961;28;19935;-71
2022/01/12 06:40:56;;;;;;;;;;;2.30;99.90;;;;;;5069250;28;20098;-71
2022/01/12 06:43:22;;;;;;;;;;;2.40;99.90;;;;;;5061601;28;20027;-71
2022/01/12 06:45:49;;;;;;;;;;;2.30;99.90;;;;;;5061999;28;19931;-71
2022/01/12 06:48:16;;;;;;;;;;;2.30;99.90;;;;;;5057167;28;20007;-71
2022/01/12 06:50:42;;;;;;;;;;;2.30;99.90;;;;;;5064191;28;19990;-71
2022/01/12 06:53:09;;;;;;;;;;;2.40;99.90;;;;;;5065856;28;20286;-70
2022/01/12 06:55:39;;;;;;;;;;;2.30;99.90;;;;;;5062742;28;19950;-71
2022/01/12 06:58:07;;;;;;;;;;;2.40;99.90;;;;;;5056695;28;19925;-72
2022/01/12 07:00:36;;;;;;;;;;;2.30;99.90;;;;;;5061693;28;20031;-71
2022/01/12 07:03:03;;;;;;;;;;;2.40;99.90;;;;;;5057702;28;19932;-71
2022/01/12 07:05:30;;;;;;;;;;;2.40;99.90;;;;;;5064754;28;19924;-71
2022/01/12 07:07:57;;;;;;;;;;;2.40;99.90;;;;;;5057550;28;19975;-70
2022/01/12 07:10:24;;;;;;;;;;;2.40;99.90;;;;;;5061518;28;20391;-73
2022/01/12 07:12:50;;;;;;;;;;;2.40;99.90;;;;;;5069010;28;20297;-70
2022/01/12 07:15:18;;;;;;;;;;;2.40;99.90;;;;;;5072704;28;20347;-72
2022/01/12 07:17:45;;;;;;;;;;;2.40;99.90;;;;;;5064385;28;19925;-71
2022/01/12 07:20:12;;;;;;;;;;;2.50;99.90;;;;;;5076419;28;19985;-70
2022/01/12 07:22:39;;;;;;;;;;;2.50;99.90;;;;;;5067106;28;19930;-72
2022/01/12 07:25:06;;;;;;;;;;;2.50;99.90;;;;;;5081285;28;19924;-71
2022/01/12 07:27:33;;;;;;;;;;;2.50;99.90;;;;;;5071519;28;20023;-70
2022/01/12 07:30:00;;;;;;;;;;;2.60;99.90;;;;;;5071098;28;19970;-70
2022/01/12 07:32:28;;;;;;;;;;;2.50;99.90;;;;;;5059827;28;19924;-71
2022/01/12 07:34:55;;;;;;;;;;;2.50;99.90;;;;;;5071841;28;20383;-71
2022/01/12 07:37:22;;;;;;;;;;;2.50;99.90;;;;;;5072034;28;19987;-72
2022/01/12 07:39:49;;;;;;;;;;;2.50;99.90;;;;;;5066025;28;19928;-71
2022/01/12 07:42:15;;;;;;;;;;;2.50;99.90;;;;;;5069326;28;20019;-70
2022/01/12 07:44:42;;;;;;;;;;;2.50;99.90;;;;;;5073195;28;20438;-70
2022/01/12 07:47:08;;;;;;;;;;;2.60;99.90;;;;;;5070689;28;20530;-71
2022/01/12 07:49:37;;;;;;;;;;;2.60;99.90;;;;;;5072080;28;19925;-71
2022/01/12 07:52:04;;;;;;;;;;;2.60;99.90;;;;;;5071466;28;19955;-71
2022/01/12 07:54:31;;;;;;;;;;;2.60;99.90;;;;;;5076632;28;19924;-71
2022/01/12 07:56:57;;;;;;;;;;;2.60;99.90;;;;;;5070876;28;20022;-72
2022/01/12 07:59:24;;;;;;;;;;;2.60;99.90;;;;;;5074545;28;19931;-72
2022/01/12 08:01:51;;;;;;;;;;;2.60;99.90;;;;;;5073811;28;20593;-71
2022/01/12 08:04:17;;;;;;;;;;;2.60;99.90;;;;;;5062386;28;19928;-70
2022/01/12 08:06:45;;;;;;;;;;;2.60;99.90;;;;;;5072609;28;20067;-71
2022/01/12 08:09:12;;;;;;;;;;;2.60;99.90;;;;;;5067437;28;20007;-71
2022/01/12 08:11:38;;;;;;;;;;;2.60;99.90;;;;;;5071359;28;19944;-71
2022/01/12 08:14:05;;;;;;;;;;;2.70;99.90;;;;;;5079434;28;19932;-71
2022/01/12 08:16:32;;;;;;;;;;;2.70;99.90;;;;;;5073831;28;19924;-71
2022/01/12 08:18:58;;;;;;;;;;;2.70;99.90;;;;;;5060950;28;19954;-70
2022/01/12 08:21:27;;;;;;;;;;;2.80;99.90;;;;;;5073807;28;19947;-70
2022/01/12 08:23:55;;;;;;;;;;;2.80;99.90;;;;;;5073184;28;19929;-70
2022/01/12 08:26:21;;;;;;;;;;;2.80;99.90;;;;;;5061969;28;19925;-71
2022/01/12 08:28:48;;;;;;;;;;;2.80;99.90;;;;;;5081851;28;22509;-70
2022/01/12 08:31:15;;;;;;;;;;;2.80;99.90;;;;;;5078036;28;20019;-71
2022/01/12 08:33:41;;;;;;;;;;;2.80;99.90;;;;;;5067577;28;19971;-71
2022/01/12 08:36:08;;;;;;;;;;;2.80;99.90;;;;;;5070401;28;19964;-70
2022/01/12 08:38:35;;;;;;;;;;;2.80;99.90;;;;;;5073716;28;19924;-71
2022/01/12 08:41:03;;;;;;;;;;;2.80;99.90;;;;;;5071722;28;20003;-71
2022/01/12 08:43:30;;;;;;;;;;;2.90;99.90;;;;;;5075803;28;20015;-72
2022/01/12 08:45:56;;;;;;;;;;;2.80;99.90;;;;;;5073353;28;19924;-71
2022/01/12 08:48:23;;;;;;;;;;;2.80;99.90;;;;;;5072676;28;19995;-72
2022/01/12 08:50:50;;;;;;;;;;;2.80;99.90;;;;;;5068307;28;19931;-70
2022/01/12 08:53:16;;;;;;;;;;;2.90;99.90;;;;;;5068612;28;19998;-72
2022/01/12 08:55:43;;;;;;;;;;;2.90;99.90;;;;;;5071736;28;20922;-71
2022/01/12 08:58:11;;;;;;;;;;;2.90;99.90;;;;;;5067829;28;19969;-72
2022/01/12 09:00:38;;;;;;;;;;;3.00;99.90;;;;;;5080331;28;20015;-72
2022/01/12 09:03:05;;;;;;;;;;;3.10;99.90;;;;;;5064529;28;19925;-71
2022/01/12 09:05:32;;;;;;;;;;;3.10;99.90;;;;;;5076302;28;19924;-72
2022/01/12 09:07:59;;;;;;;;;;;3.10;99.90;;;;;;5067078;28;19924;-71
2022/01/12 09:10:26;;;;;;;;;;;3.20;99.90;;;;;;5071171;28;19981;-72
2022/01/12 09:12:52;;;;;;;;;;;3.30;99.90;;;;;;5057050;28;19943;-72
2022/01/12 09:15:25;;;;;;;;;;;3.30;99.90;;;;;;5067365;28;19931;-70
2022/01/12 09:17:52;;;;;;;;;;;3.30;99.90;;;;;;5059105;28;19948;-74
2022/01/12 09:20:19;;;;;;;;;;;3.30;99.90;;;;;;5056312;28;19935;-70
2022/01/12 09:22:45;;;;;;;;;;;3.30;99.90;;;;;;5059025;28;19931;-70
2022/01/12 09:25:12;;;;;;;;;;;3.30;99.90;;;;;;5064520;28;19939;-70
2022/01/12 09:27:39;;;;;;;;;;;3.30;99.90;;;;;;5070602;28;19932;-71
2022/01/12 09:30:07;;;;;;;;;;;3.30;99.90;;;;;;5067892;28;19925;-71
2022/01/12 09:32:35;;;;;;;;;;;3.40;99.90;;;;;;5063925;28;20657;-70
2022/01/12 09:35:02;;;;;;;;;;;3.40;99.90;;;;;;5068281;28;19933;-71
2022/01/12 09:37:29;;;;;;;;;;;3.40;99.90;;;;;;5062248;28;19925;-72
2022/01/12 09:39:55;;;;;;;;;;;3.50;99.90;;;;;;5074876;28;19964;-78
2022/01/12 09:42:22;;;;;;;;;;;3.60;99.90;;;;;;5073725;28;19924;-77
2022/01/12 09:44:49;;;;;;;;;;;3.70;99.90;;;;;;5062841;28;19924;-77
2022/01/12 09:47:16;;;;;;;;;;;3.70;99.90;;;;;;5059383;28;19932;-77
2022/01/12 09:49:45;;;;;;;;;;;3.70;99.90;;;;;;5061063;28;19975;-76
2022/01/12 09:52:12;;;;;;;;;;;3.80;99.90;;;;;;5060721;28;19932;-75
2022/01/12 09:54:38;;;;;;;;;;;3.80;99.90;;;;;;5067016;28;19924;-76
2022/01/12 09:57:05;;;;;;;;;;;4.00;99.90;;;;;;5065383;28;19924;-75
2022/01/12 09:59:32;;;;;;;;;;;4.00;99.90;;;;;;5061410;28;19925;-75
2022/01/12 10:01:59;;;;;;;;;;;4.10;99.90;;;;;;5064594;28;19936;-76
2022/01/12 10:04:26;;;;;;;;;;;4.10;99.90;;;;;;5064957;28;19928;-75
2022/01/12 10:06:55;;;;;;;;;;;4.10;99.90;;;;;;5066057;28;20011;-76
2022/01/12 10:09:24;;;;;;;;;;;4.20;99.90;;;;;;5064274;28;20291;-75
2022/01/12 10:11:51;;;;;;;;;;;4.20;99.90;;;;;;5066758;28;19933;-75
2022/01/12 10:14:18;;;;;;;;;;;4.10;99.90;;;;;;5067760;28;19934;-75
2022/01/12 10:16:53;;;;;;;;;;;4.10;99.90;;;;;;5064273;28;20003;-75
2022/01/12 10:19:26;;;;;;;;;;;4.00;99.90;;;;;;5068613;28;19936;-76
2022/01/12 10:21:53;;;;;;;;;;;4.10;99.90;;;;;;5067311;28;19932;-75
2022/01/12 10:24:22;;;;;;;;;;;4.10;99.90;;;;;;5061029;28;19931;-73
2022/01/12 10:26:49;;;;;;;;;;;4.20;99.90;;;;;;5069714;28;20015;-75
2022/01/12 10:29:16;;;;;;;;;;;4.20;99.90;;;;;;5070108;28;20030;-74
2022/01/12 10:31:48;;;;;;;;;;;4.20;99.90;;;;;;5068972;28;20019;-74
2022/01/12 10:34:14;;;;;;;;;;;4.20;99.90;;;;;;5066583;28;19925;-75
2022/01/12 10:36:42;;;;;;;;;;;4.30;99.90;;;;;;5053948;22;20397;-75
2022/01/12 10:39:09;;;;;;;;;;;4.30;99.90;;;;;;5024377;28;19930;-76
2022/01/12 10:41:42;;;;;;;;;;;4.40;99.90;;;;;;5023008;28;19925;-73
2022/01/12 10:44:18;;;;;;;;;;;4.50;99.90;;;;;;5018019;28;20010;-76
2022/01/12 10:46:45;;;;;;;;;;;4.50;99.90;;;;;;5024925;28;19925;-75
2022/01/12 10:49:18;;;;;;;;;;;4.60;99.90;;;;;;5025877;28;19936;-75
2022/01/12 10:51:53;;;;;;;;;;;4.70;99.90;;;;;;5019919;28;19929;-75
2022/01/12 10:54:20;;;;;;;;;;;4.80;99.90;;;;;;5016569;28;19926;-76
2022/01/12 10:56:48;;;;;;;;;;;4.80;99.90;;;;;;5014231;28;19933;-75
2022/01/12 10:59:16;;;;;;;;;;;4.80;99.90;;;;;;5019364;28;20031;-77
2022/01/12 11:01:42;;;;;;;;;;;4.60;99.90;;;;;;5017513;28;19925;-76
2022/01/12 11:04:09;;;;;;;;;;;4.50;99.90;;;;;;5027843;28;20486;-74
2022/01/12 11:06:36;;;;;;;;;;;4.50;99.90;;;;;;5018021;28;20382;-70
2022/01/12 11:09:03;;;;;;;;;;;4.60;99.90;;;;;;5018846;28;20363;-73
2022/01/12 11:11:30;;;;;;;;;;;4.60;99.90;;;;;;5021002;28;20414;-70
2022/01/12 11:13:58;;;;;;;;;;;4.60;99.90;;;;;;5012927;28;19933;-72
2022/01/12 11:16:26;;;;;;;;;;;4.60;99.90;;;;;;5017257;28;20303;-73
2022/01/12 11:18:54;;;;;;;;;;;4.70;99.90;;;;;;5012201;28;20449;-73
2022/01/12 11:21:23;;;;;;;;;;;4.60;99.90;;;;;;5018747;28;19931;-71
2022/01/12 11:23:51;;;;;;;;;;;4.70;99.90;;;;;;5018109;28;19933;-71
2022/01/12 11:26:19;;;;;;;;;;;4.70;99.90;;;;;;5017143;28;20033;-72
2022/01/12 11:28:46;;;;;;;;;;;4.70;99.90;;;;;;5013338;28;19925;-72
2022/01/12 11:31:18;;;;;;;;;;;4.70;99.90;;;;;;5017433;28;19925;-72
2022/01/12 11:33:45;;;;;;;;;;;4.70;99.90;;;;;;5022183;28;19978;-72
2022/01/12 11:36:14;;;;;;;;;;;4.60;99.90;;;;;;5019707;28;20008;-71
2022/01/12 11:38:40;;;;;;;;;;;4.50;99.90;;;;;;5013657;28;19994;-72
2022/01/12 11:41:11;;;;;;;;;;;4.40;99.90;;;;;;5010904;28;20028;-72
2022/01/12 11:43:42;;;;;;;;;;;4.30;99.90;;;;;;5010599;28;19960;-71
2022/01/12 11:46:10;;;;;;;;;;;4.30;99.90;;;;;;5015501;28;19933;-72
2022/01/12 11:48:42;;;;;;;;;;;4.30;99.90;;;;;;5012166;28;19933;-71
2022/01/12 11:51:09;;;;;;;;;;;4.40;99.90;;;;;;5024546;28;20329;-71
2022/01/12 11:53:45;;;;;;;;;;;4.50;99.90;;;;;;5022489;28;20015;-72
2022/01/12 11:56:13;;;;;;;;;;;4.50;99.90;;;;;;5022237;28;20299;-71
2022/01/12 11:58:53;;;;;;;;;;;4.30;99.90;;;;;;5016921;28;19925;-71
2022/01/12 12:01:22;;;;;;;;;;;4.40;99.90;;;;;;5014354;28;19929;-67
2022/01/12 12:04:03;;;;;;;;;;;4.60;99.90;;;;;;5019646;28;19933;-67
2022/01/12 12:06:30;;;;;;;;;;;4.10;99.90;;;;;;5013540;28;19960;-69
2022/01/12 12:08:57;;;;;;;;;;;4.30;99.90;;;;;;5013724;28;20078;-67
2022/01/12 12:11:25;;;;;;;;;;;4.60;99.90;;;;;;5015750;28;19939;-66
2022/01/12 12:13:52;;;;;;;;;;;4.70;99.90;;;;;;5024185;28;19969;-74
2022/01/12 12:16:19;;;;;;;;;;;4.90;99.90;;;;;;5019636;28;19931;-74
2022/01/12 12:18:46;;;;;;;;;;;4.90;99.90;;;;;;5020585;28;19976;-72
2022/01/12 12:21:14;;;;;;;;;;;4.90;99.90;;;;;;5018243;28;19925;-72
2022/01/12 12:23:41;;;;;;;;;;;5.00;99.90;;;;;;5009870;28;20432;-71
2022/01/12 12:26:08;;;;;;;;;;;5.00;99.90;;;;;;5010838;28;20407;-71
2022/01/12 12:28:35;;;;;;;;;;;4.90;99.90;;;;;;5010399;28;19929;-71
2022/01/12 12:31:02;;;;;;;;;;;4.80;99.90;;;;;;5007951;28;19932;-71
2022/01/12 12:33:28;;;;;;;;;;;4.70;99.90;;;;;;5007790;28;20452;-72
2022/01/12 12:35:55;;;;;;;;;;;4.60;99.90;;;;;;5016322;28;19951;-72
2022/01/12 12:38:23;;;;;;;;;;;4.50;99.90;;;;;;5019132;28;20222;-72
2022/01/12 12:40:53;;;;;;;;;;;4.50;99.90;;;;;;5018010;28;19933;-72
2022/01/12 12:43:22;;;;;;;;;;;4.40;99.90;;;;;;5016572;28;19926;-71
2022/01/12 12:45:50;;;;;;;;;;;4.10;99.90;;;;;;5013704;28;20017;-72
2022/01/12 12:48:18;;;;;;;;;;;4.10;99.90;;;;;;5015997;28;20299;-72
2022/01/12 12:50:45;;;;;;;;;;;4.10;99.90;;;;;;5014133;28;19972;-72
2022/01/12 12:53:12;;;;;;;;;;;4.00;99.90;;;;;;5011985;28;19929;-70
2022/01/12 12:55:41;;;;;;;;;;;4.00;99.90;;;;;;5009612;28;19926;-72
2022/01/12 12:58:09;;;;;;;;;;;3.90;99.90;;;;;;5005936;28;20375;-72
2022/01/12 13:00:36;;;;;;;;;;;4.00;99.90;;;;;;5017099;28;19937;-72
2022/01/12 13:03:04;;;;;;;;;;;3.90;99.90;;;;;;5014115;28;19926;-72
2022/01/12 13:05:31;;;;;;;;;;;3.80;99.90;;;;;;5014703;27;19926;-70
2022/01/12 13:07:58;;;;;;;;;;;3.80;99.90;;;;;;5009988;28;20056;-71
2022/01/12 13:10:25;;;;;;;;;;;3.80;99.90;;;;;;5013190;28;20714;-72
2022/01/12 13:12:55;;;;;;;;;;;3.90;99.90;;;;;;5018315;27;19925;-72
2022/01/12 13:15:23;;;;;;;;;;;4.00;99.90;;;;;;5022944;28;20021;-72
2022/01/12 13:17:58;;;;;;;;;;;4.10;99.90;;;;;;5017673;28;19930;-72
2022/01/12 13:23:10;;;;;;;;;;;4.30;99.90;;;;;;5019308;28;20563;-72
2022/01/12 13:25:37;;;;;;;;;;;4.40;99.90;;;;;;5009285;28;20869;-71
2022/01/12 13:28:06;;;;;;;;;;;4.50;99.90;;;;;;5010362;28;19932;-72
2022/01/12 13:30:46;;;;;;;;;;;4.50;99.90;;;;;;5007769;28;19944;-72
2022/01/12 13:33:13;;;;;;;;;;;4.50;99.90;;;;;;5016612;28;20011;-72
2022/01/12 13:35:41;;;;;;;;;;;4.50;99.90;;;;;;5012488;28;19932;-71
2022/01/12 13:38:12;;;;;;;;;;;4.50;99.90;;;;;;5023661;28;19996;-72
2022/01/12 13:40:40;;;;;;;;;;;4.60;99.90;;;;;;5014439;28;19933;-72
2022/01/12 13:43:08;;;;;;;;;;;4.60;99.90;;;;;;5009972;28;19926;-70
2022/01/12 13:45:41;;;;;;;;;;;4.60;99.90;;;;;;5011531;28;19940;-71
2022/01/12 13:48:13;;;;;;;;;;;4.60;99.90;;;;;;5013261;28;19978;-71
2022/01/12 13:50:41;;;;;;;;;;;4.50;99.90;;;;;;5013447;28;20344;-73
2022/01/12 13:53:11;;;;;;;;;;;4.50;99.90;;;;;;5007816;28;19931;-73
2022/01/12 13:55:48;;;;;;;;;;;4.40;99.90;;;;;;5010295;28;19925;-73
2022/01/12 13:58:16;;;;;;;;;;;4.00;99.90;;;;;;5012421;28;20291;-74
2022/01/12 14:00:44;;;;;;;;;;;3.90;99.90;;;;;;5009178;28;20499;-73
2022/01/12 14:03:14;;;;;;;;;;;3.80;99.90;;;;;;5013697;28;20295;-75
2022/01/12 14:05:41;;;;;;;;;;;3.90;99.90;;;;;;5014951;28;20023;-73
2022/01/12 14:08:13;;;;;;;;;;;4.00;99.90;;;;;;5012201;28;20024;-76
2022/01/12 14:10:43;;;;;;;;;;;4.10;99.90;;;;;;5011384;28;19957;-77
2022/01/12 14:13:11;;;;;;;;;;;4.20;99.90;;;;;;5015843;28;19926;-76
2022/01/12 14:15:39;;;;;;;;;;;4.00;99.90;;;;;;5013594;28;19937;-76
2022/01/12 14:18:10;;;;;;;;;;;4.10;99.90;;;;;;5013021;28;20014;-74
2022/01/12 14:20:42;;;;;;;;;;;4.00;99.90;;;;;;5011073;28;20364;-74
2022/01/12 14:23:10;;;;;;;;;;;3.90;99.90;;;;;;5009895;28;19933;-75
2022/01/12 14:25:38;;;;;;;;;;;3.90;99.90;;;;;;5010176;28;20400;-74
2022/01/12 14:28:06;;;;;;;;;;;3.80;99.90;;;;;;5020114;28;20291;-75
2022/01/12 14:30:32;;;;;;;;;;;3.90;99.90;;;;;;5007152;28;19932;-76
2022/01/12 14:33:01;;;;;;;;;;;4.10;99.90;;;;;;5012330;28;19932;-75
2022/01/12 14:35:28;;;;;;;;;;;4.00;99.90;;;;;;5016897;28;19925;-76
2022/01/12 14:37:56;;;;;;;;;;;4.10;99.90;;;;;;5011181;28;19933;-76
2022/01/12 14:40:23;;;;;;;;;;;4.10;99.90;;;;;;5012119;28;19933;-76
2022/01/12 14:42:52;;;;;;;;;;;4.20;99.90;;;;;;5011708;28;20028;-76
2022/01/12 14:45:21;;;;;;;;;;;4.20;99.90;;;;;;5012646;28;20751;-75
2022/01/12 14:47:48;;;;;;;;;;;4.30;99.90;;;;;;5016352;28;19971;-76
2022/01/12 14:50:16;;;;;;;;;;;4.30;99.90;;;;;;5022794;28;20453;-76
2022/01/12 14:52:43;;;;;;;;;;;4.30;99.90;;;;;;5020384;28;19933;-76
2022/01/12 14:55:10;;;;;;;;;;;4.30;99.90;;;;;;5016496;28;19937;-76
2022/01/12 14:57:37;;;;;;;;;;;4.10;99.90;;;;;;5018802;28;19934;-77
2022/01/12 15:00:05;;;;;;;;;;;4.10;99.90;;;;;;5018370;28;19925;-75
2022/01/12 15:02:33;;;;;;;;;;;4.20;99.90;;;;;;5015989;27;19967;-75
2022/01/12 15:04:59;;;;;;;;;;;4.10;99.90;;;;;;5022145;28;19932;-77
2022/01/12 15:07:28;;;;;;;;;;;3.90;99.90;;;;;;5013449;28;19965;-74
2022/01/12 15:09:55;;;;;;;;;;;4.00;99.90;;;;;;5016268;28;19933;-75
2022/01/12 15:12:28;;;;;;;;;;;4.00;99.90;;;;;;5014093;28;19929;-73
2022/01/12 15:14:59;;;;;;;;;;;4.20;99.90;;;;;;5015584;28;19930;-74
2022/01/12 15:17:28;;;;;;;;;;;4.20;99.90;;;;;;5012895;28;19987;-74
2022/01/12 15:19:54;;;;;;;;;;;4.20;99.90;;;;;;5023308;28;19957;-75
2022/01/12 15:22:21;;;;;;;;;;;4.20;99.90;;;;;;5018683;28;19961;-74
2022/01/12 15:24:49;;;;;;;;;;;4.20;99.90;;;;;;5017853;28;20016;-74
2022/01/12 15:27:16;;;;;;;;;;;4.10;99.90;;;;;;5015072;28;19926;-74
2022/01/12 15:29:43;;;;;;;;;;;4.10;99.90;;;;;;5014419;28;20032;-74
2022/01/12 15:32:10;;;;;;;;;;;4.20;99.90;;;;;;5018272;28;19925;-74
2022/01/12 15:34:37;;;;;;;;;;;4.20;99.90;;;;;;5017138;27;19929;-75
2022/01/12 15:37:04;;;;;;;;;;;4.10;99.90;;;;;;5016642;27;19933;-75
2022/01/12 15:39:30;;;;;;;;;;;4.10;99.90;;;;;;5019243;28;19925;-75